sensor_id;sensor_type;location;lat;lon;timestamp;P1;durP1;ratioP1;P2;durP2;ratioP2
30458;SDS011;74163;50.912;6.918;2024-01-15T00:00:19;29.95;;;18.63;;
30458;SDS011;74163;50.912;6.918;2024-01-15T00:00:51;31.48;;;18.70;;
30458;SDS011;74163;50.912;6.918;2024-01-15T00:01:24;31.35;;;18.70;;
30458;SDS011;74163;50.912;6.918;2024-01-15T00:01:55;32.15;;;19.00;;
30458;SDS011;74163;50.912;6.918;2024-01-15T00:02:27;32.55;;;19.33;;
30458;SDS011;74163;50.912;6.918;2024-01-15T00:03:00;29.60;;;18.58;;
30458;SDS011;74163;50.912;6.918;2024-01-15T00:03:32;31.80;;;18.25;;
30458;SDS011;74163;50.912;6.918;2024-01-15T00:04:04;33.28;;;19.05;;
30458;SDS011;74163;50.912;6.918;2024-01-15T00:04:36;33.72;;;18.58;;
30458;SDS011;74163;50.912;6.918;2024-01-15T00:05:08;34.60;;;19.93;;
30458;SDS011;74163;50.912;6.918;2024-01-15T00:05:40;31.75;;;18.70;;
30458;SDS011;74163;50.912;6.918;2024-01-15T00:06:12;33.30;;;19.98;;
30458;SDS011;74163;50.912;6.918;2024-01-15T00:06:44;35.33;;;20.63;;
30458;SDS011;74163;50.912;6.918;2024-01-15T00:07:16;35.58;;;19.77;;
30458;SDS011;74163;50.912;6.918;2024-01-15T00:07:48;32.13;;;18.67;;
30458;SDS011;74163;50.912;6.918;2024-01-15T00:08:20;32.97;;;19.80;;
30458;SDS011;74163;50.912;6.918;2024-01-15T00:08:52;33.92;;;19.40;;
30458;SDS011;74163;50.912;6.918;2024-01-15T00:09:23;35.28;;;20.33;;
30458;SDS011;74163;50.912;6.918;2024-01-15T00:09:55;33.85;;;18.50;;
30458;SDS011;74163;50.912;6.918;2024-01-15T00:10:27;32.20;;;19.40;;
30458;SDS011;74163;50.912;6.918;2024-01-15T00:10:59;33.78;;;19.35;;
30458;SDS011;74163;50.912;6.918;2024-01-15T00:11:31;31.13;;;19.30;;
30458;SDS011;74163;50.912;6.918;2024-01-15T00:12:03;28.80;;;18.30;;
30458;SDS011;74163;50.912;6.918;2024-01-15T00:12:35;35.90;;;20.20;;
30458;SDS011;74163;50.912;6.918;2024-01-15T00:13:07;31.42;;;20.00;;
30458;SDS011;74163;50.912;6.918;2024-01-15T00:13:39;33.92;;;19.38;;
30458;SDS011;74163;50.912;6.918;2024-01-15T00:14:11;35.40;;;19.60;;
30458;SDS011;74163;50.912;6.918;2024-01-15T00:14:43;32.72;;;19.50;;
30458;SDS011;74163;50.912;6.918;2024-01-15T00:15:14;33.28;;;19.10;;
30458;SDS011;74163;50.912;6.918;2024-01-15T00:15:46;34.80;;;20.88;;
30458;SDS011;74163;50.912;6.918;2024-01-15T00:16:18;35.58;;;20.08;;
30458;SDS011;74163;50.912;6.918;2024-01-15T00:16:50;34.43;;;20.30;;
30458;SDS011;74163;50.912;6.918;2024-01-15T00:17:22;34.70;;;19.27;;
30458;SDS011;74163;50.912;6.918;2024-01-15T00:17:54;32.88;;;18.98;;
30458;SDS011;74163;50.912;6.918;2024-01-15T00:18:27;31.80;;;19.08;;
30458;SDS011;74163;50.912;6.918;2024-01-15T00:18:59;33.35;;;19.30;;
30458;SDS011;74163;50.912;6.918;2024-01-15T00:19:31;30.60;;;19.13;;
30458;SDS011;74163;50.912;6.918;2024-01-15T00:20:04;35.35;;;19.45;;
30458;SDS011;74163;50.912;6.918;2024-01-15T00:20:37;34.92;;;19.48;;
30458;SDS011;74163;50.912;6.918;2024-01-15T00:21:08;33.03;;;19.20;;
30458;SDS011;74163;50.912;6.918;2024-01-15T00:21:40;32.25;;;18.88;;
30458;SDS011;74163;50.912;6.918;2024-01-15T00:22:12;31.33;;;18.60;;
30458;SDS011;74163;50.912;6.918;2024-01-15T00:22:44;32.63;;;19.20;;
30458;SDS011;74163;50.912;6.918;2024-01-15T00:23:16;33.23;;;19.53;;
30458;SDS011;74163;50.912;6.918;2024-01-15T00:23:48;33.50;;;18.75;;
30458;SDS011;74163;50.912;6.918;2024-01-15T00:24:19;35.28;;;18.70;;
30458;SDS011;74163;50.912;6.918;2024-01-15T00:24:51;36.22;;;19.95;;
30458;SDS011;74163;50.912;6.918;2024-01-15T00:25:23;30.65;;;18.65;;
30458;SDS011;74163;50.912;6.918;2024-01-15T00:25:55;33.05;;;19.33;;
30458;SDS011;74163;50.912;6.918;2024-01-15T00:26:27;32.40;;;18.77;;
30458;SDS011;74163;50.912;6.918;2024-01-15T00:26:59;30.95;;;19.58;;
30458;SDS011;74163;50.912;6.918;2024-01-15T00:27:31;33.70;;;19.63;;
30458;SDS011;74163;50.912;6.918;2024-01-15T00:28:03;34.25;;;20.33;;
30458;SDS011;74163;50.912;6.918;2024-01-15T00:28:36;34.28;;;20.27;;
30458;SDS011;74163;50.912;6.918;2024-01-15T00:29:08;37.83;;;20.75;;
30458;SDS011;74163;50.912;6.918;2024-01-15T00:29:40;35.80;;;20.98;;
30458;SDS011;74163;50.912;6.918;2024-01-15T00:30:12;38.00;;;20.02;;
30458;SDS011;74163;50.912;6.918;2024-01-15T00:30:45;35.70;;;19.50;;
30458;SDS011;74163;50.912;6.918;2024-01-15T00:31:17;38.38;;;20.25;;
30458;SDS011;74163;50.912;6.918;2024-01-15T00:31:49;34.45;;;19.42;;
30458;SDS011;74163;50.912;6.918;2024-01-15T00:32:20;33.55;;;19.42;;
30458;SDS011;74163;50.912;6.918;2024-01-15T00:32:52;32.38;;;19.13;;
30458;SDS011;74163;50.912;6.918;2024-01-15T00:33:24;35.80;;;19.73;;
30458;SDS011;74163;50.912;6.918;2024-01-15T00:33:57;35.87;;;19.60;;
30458;SDS011;74163;50.912;6.918;2024-01-15T00:34:30;38.33;;;19.48;;
30458;SDS011;74163;50.912;6.918;2024-01-15T00:35:02;35.55;;;20.05;;
30458;SDS011;74163;50.912;6.918;2024-01-15T00:35:34;34.22;;;20.38;;
30458;SDS011;74163;50.912;6.918;2024-01-15T00:36:06;35.10;;;19.77;;
30458;SDS011;74163;50.912;6.918;2024-01-15T00:36:38;37.85;;;20.65;;
30458;SDS011;74163;50.912;6.918;2024-01-15T00:37:10;34.10;;;19.65;;
30458;SDS011;74163;50.912;6.918;2024-01-15T00:37:42;36.53;;;19.87;;
30458;SDS011;74163;50.912;6.918;2024-01-15T00:38:14;38.60;;;21.45;;
30458;SDS011;74163;50.912;6.918;2024-01-15T00:38:46;37.92;;;20.27;;
30458;SDS011;74163;50.912;6.918;2024-01-15T00:39:18;37.97;;;20.80;;
30458;SDS011;74163;50.912;6.918;2024-01-15T00:39:49;37.40;;;20.58;;
30458;SDS011;74163;50.912;6.918;2024-01-15T00:40:21;35.85;;;21.33;;
30458;SDS011;74163;50.912;6.918;2024-01-15T00:40:54;37.92;;;20.30;;
30458;SDS011;74163;50.912;6.918;2024-01-15T00:41:26;37.38;;;20.38;;
30458;SDS011;74163;50.912;6.918;2024-01-15T00:41:58;38.60;;;21.07;;
30458;SDS011;74163;50.912;6.918;2024-01-15T00:42:29;39.20;;;20.30;;
30458;SDS011;74163;50.912;6.918;2024-01-15T00:43:01;36.42;;;20.83;;
30458;SDS011;74163;50.912;6.918;2024-01-15T00:43:33;38.88;;;21.33;;
30458;SDS011;74163;50.912;6.918;2024-01-15T00:44:05;35.88;;;20.45;;
30458;SDS011;74163;50.912;6.918;2024-01-15T00:44:37;39.83;;;20.92;;
30458;SDS011;74163;50.912;6.918;2024-01-15T00:45:09;39.00;;;22.20;;
30458;SDS011;74163;50.912;6.918;2024-01-15T00:45:41;37.45;;;21.90;;
30458;SDS011;74163;50.912;6.918;2024-01-15T00:46:13;39.30;;;22.67;;
30458;SDS011;74163;50.912;6.918;2024-01-15T00:46:45;37.72;;;21.38;;
30458;SDS011;74163;50.912;6.918;2024-01-15T00:47:17;37.35;;;21.08;;
30458;SDS011;74163;50.912;6.918;2024-01-15T00:47:49;35.40;;;20.05;;
30458;SDS011;74163;50.912;6.918;2024-01-15T00:48:21;36.90;;;20.08;;
30458;SDS011;74163;50.912;6.918;2024-01-15T00:48:53;36.33;;;20.05;;
30458;SDS011;74163;50.912;6.918;2024-01-15T00:49:29;38.00;;;21.55;;
30458;SDS011;74163;50.912;6.918;2024-01-15T00:50:01;36.83;;;22.10;;
30458;SDS011;74163;50.912;6.918;2024-01-15T00:50:33;41.22;;;21.75;;
30458;SDS011;74163;50.912;6.918;2024-01-15T00:51:05;34.92;;;20.98;;
30458;SDS011;74163;50.912;6.918;2024-01-15T00:51:37;38.42;;;21.40;;
30458;SDS011;74163;50.912;6.918;2024-01-15T00:52:09;40.30;;;22.13;;
30458;SDS011;74163;50.912;6.918;2024-01-15T00:52:41;38.88;;;22.67;;
30458;SDS011;74163;50.912;6.918;2024-01-15T00:53:13;37.20;;;20.67;;
30458;SDS011;74163;50.912;6.918;2024-01-15T00:53:44;37.63;;;21.00;;
30458;SDS011;74163;50.912;6.918;2024-01-15T00:54:16;41.05;;;22.38;;
30458;SDS011;74163;50.912;6.918;2024-01-15T00:54:48;37.03;;;21.05;;
30458;SDS011;74163;50.912;6.918;2024-01-15T00:55:20;37.60;;;21.30;;
30458;SDS011;74163;50.912;6.918;2024-01-15T00:55:52;40.40;;;21.75;;
30458;SDS011;74163;50.912;6.918;2024-01-15T00:56:24;38.50;;;21.63;;
30458;SDS011;74163;50.912;6.918;2024-01-15T00:56:55;37.65;;;21.20;;
30458;SDS011;74163;50.912;6.918;2024-01-15T00:57:27;42.47;;;22.13;;
30458;SDS011;74163;50.912;6.918;2024-01-15T00:57:59;40.00;;;21.77;;
30458;SDS011;74163;50.912;6.918;2024-01-15T00:58:31;40.50;;;22.65;;
30458;SDS011;74163;50.912;6.918;2024-01-15T00:59:03;37.90;;;21.48;;
30458;SDS011;74163;50.912;6.918;2024-01-15T00:59:35;40.45;;;21.83;;
30458;SDS011;74163;50.912;6.918;2024-01-15T01:00:06;41.10;;;21.50;;
30458;SDS011;74163;50.912;6.918;2024-01-15T01:00:39;41.50;;;21.70;;
30458;SDS011;74163;50.912;6.918;2024-01-15T01:01:11;38.53;;;22.20;;
30458;SDS011;74163;50.912;6.918;2024-01-15T01:01:43;43.58;;;22.58;;
30458;SDS011;74163;50.912;6.918;2024-01-15T01:02:15;40.03;;;21.50;;
30458;SDS011;74163;50.912;6.918;2024-01-15T01:02:47;40.47;;;22.00;;
30458;SDS011;74163;50.912;6.918;2024-01-15T01:03:19;42.10;;;22.42;;
30458;SDS011;74163;50.912;6.918;2024-01-15T01:03:51;43.22;;;22.17;;
30458;SDS011;74163;50.912;6.918;2024-01-15T01:04:24;41.50;;;22.45;;
30458;SDS011;74163;50.912;6.918;2024-01-15T01:04:56;37.88;;;21.77;;
30458;SDS011;74163;50.912;6.918;2024-01-15T01:05:28;38.10;;;22.80;;
30458;SDS011;74163;50.912;6.918;2024-01-15T01:06:00;38.08;;;21.58;;
30458;SDS011;74163;50.912;6.918;2024-01-15T01:06:31;37.40;;;20.98;;
30458;SDS011;74163;50.912;6.918;2024-01-15T01:07:04;39.92;;;22.17;;
30458;SDS011;74163;50.912;6.918;2024-01-15T01:07:36;38.17;;;21.48;;
30458;SDS011;74163;50.912;6.918;2024-01-15T01:08:08;38.00;;;20.98;;
30458;SDS011;74163;50.912;6.918;2024-01-15T01:08:40;43.08;;;21.52;;
30458;SDS011;74163;50.912;6.918;2024-01-15T01:09:12;45.58;;;23.70;;
30458;SDS011;74163;50.912;6.918;2024-01-15T01:09:44;40.42;;;21.92;;
30458;SDS011;74163;50.912;6.918;2024-01-15T01:10:16;43.08;;;21.88;;
30458;SDS011;74163;50.912;6.918;2024-01-15T01:10:48;38.30;;;21.45;;
30458;SDS011;74163;50.912;6.918;2024-01-15T01:11:19;40.38;;;22.05;;
30458;SDS011;74163;50.912;6.918;2024-01-15T01:11:51;40.88;;;22.08;;
30458;SDS011;74163;50.912;6.918;2024-01-15T01:12:23;37.97;;;22.45;;
30458;SDS011;74163;50.912;6.918;2024-01-15T01:12:55;40.65;;;22.45;;
30458;SDS011;74163;50.912;6.918;2024-01-15T01:13:27;41.70;;;22.13;;
30458;SDS011;74163;50.912;6.918;2024-01-15T01:13:59;37.42;;;22.67;;
30458;SDS011;74163;50.912;6.918;2024-01-15T01:14:31;41.33;;;22.13;;
30458;SDS011;74163;50.912;6.918;2024-01-15T01:15:03;36.57;;;20.97;;
30458;SDS011;74163;50.912;6.918;2024-01-15T01:15:36;40.83;;;21.67;;
30458;SDS011;74163;50.912;6.918;2024-01-15T01:16:08;42.15;;;21.90;;
30458;SDS011;74163;50.912;6.918;2024-01-15T01:16:40;40.33;;;22.13;;
30458;SDS011;74163;50.912;6.918;2024-01-15T01:17:12;40.45;;;22.25;;
30458;SDS011;74163;50.912;6.918;2024-01-15T01:17:44;40.67;;;22.08;;
30458;SDS011;74163;50.912;6.918;2024-01-15T01:18:16;36.60;;;21.25;;
30458;SDS011;74163;50.912;6.918;2024-01-15T01:18:48;39.53;;;20.98;;
30458;SDS011;74163;50.912;6.918;2024-01-15T01:19:20;39.30;;;21.23;;
30458;SDS011;74163;50.912;6.918;2024-01-15T01:19:53;39.85;;;21.98;;
30458;SDS011;74163;50.912;6.918;2024-01-15T01:20:25;38.97;;;22.70;;
30458;SDS011;74163;50.912;6.918;2024-01-15T01:20:57;41.03;;;23.30;;
30458;SDS011;74163;50.912;6.918;2024-01-15T01:21:29;38.88;;;22.17;;
30458;SDS011;74163;50.912;6.918;2024-01-15T01:22:01;41.35;;;23.00;;
30458;SDS011;74163;50.912;6.918;2024-01-15T01:22:33;39.92;;;22.00;;
30458;SDS011;74163;50.912;6.918;2024-01-15T01:23:05;41.55;;;22.08;;
30458;SDS011;74163;50.912;6.918;2024-01-15T01:23:36;41.50;;;21.70;;
30458;SDS011;74163;50.912;6.918;2024-01-15T01:24:08;42.00;;;22.10;;
30458;SDS011;74163;50.912;6.918;2024-01-15T01:24:40;42.42;;;22.70;;
30458;SDS011;74163;50.912;6.918;2024-01-15T01:25:12;40.78;;;22.20;;
30458;SDS011;74163;50.912;6.918;2024-01-15T01:25:44;38.83;;;22.15;;
30458;SDS011;74163;50.912;6.918;2024-01-15T01:26:16;40.53;;;22.20;;
30458;SDS011;74163;50.912;6.918;2024-01-15T01:26:48;37.92;;;21.83;;
30458;SDS011;74163;50.912;6.918;2024-01-15T01:27:20;42.67;;;23.30;;
30458;SDS011;74163;50.912;6.918;2024-01-15T01:27:52;44.67;;;24.10;;
30458;SDS011;74163;50.912;6.918;2024-01-15T01:28:24;41.55;;;23.30;;
30458;SDS011;74163;50.912;6.918;2024-01-15T01:28:56;40.47;;;22.30;;
30458;SDS011;74163;50.912;6.918;2024-01-15T01:29:28;40.67;;;22.98;;
30458;SDS011;74163;50.912;6.918;2024-01-15T01:29:59;43.47;;;23.13;;
30458;SDS011;74163;50.912;6.918;2024-01-15T01:30:31;45.03;;;23.73;;
30458;SDS011;74163;50.912;6.918;2024-01-15T01:31:03;41.03;;;21.87;;
30458;SDS011;74163;50.912;6.918;2024-01-15T01:31:35;41.83;;;23.52;;
30458;SDS011;74163;50.912;6.918;2024-01-15T01:32:07;42.97;;;23.38;;
30458;SDS011;74163;50.912;6.918;2024-01-15T01:32:39;43.60;;;22.75;;
30458;SDS011;74163;50.912;6.918;2024-01-15T01:33:10;41.53;;;23.15;;
30458;SDS011;74163;50.912;6.918;2024-01-15T01:33:42;42.70;;;22.65;;
30458;SDS011;74163;50.912;6.918;2024-01-15T01:34:15;41.50;;;22.95;;
30458;SDS011;74163;50.912;6.918;2024-01-15T01:34:47;42.95;;;23.58;;
30458;SDS011;74163;50.912;6.918;2024-01-15T01:35:21;44.58;;;23.73;;
30458;SDS011;74163;50.912;6.918;2024-01-15T01:35:53;45.47;;;23.75;;
30458;SDS011;74163;50.912;6.918;2024-01-15T01:36:25;43.85;;;23.33;;
30458;SDS011;74163;50.912;6.918;2024-01-15T01:36:56;42.25;;;22.83;;
30458;SDS011;74163;50.912;6.918;2024-01-15T01:37:28;43.13;;;23.63;;
30458;SDS011;74163;50.912;6.918;2024-01-15T01:38:00;41.53;;;24.08;;
30458;SDS011;74163;50.912;6.918;2024-01-15T01:38:32;42.03;;;22.42;;
30458;SDS011;74163;50.912;6.918;2024-01-15T01:39:04;40.53;;;23.17;;
30458;SDS011;74163;50.912;6.918;2024-01-15T01:39:35;44.28;;;24.58;;
30458;SDS011;74163;50.912;6.918;2024-01-15T01:40:08;40.35;;;23.08;;
30458;SDS011;74163;50.912;6.918;2024-01-15T01:40:40;46.53;;;23.60;;
30458;SDS011;74163;50.912;6.918;2024-01-15T01:41:12;45.27;;;25.20;;
30458;SDS011;74163;50.912;6.918;2024-01-15T01:41:44;43.88;;;24.35;;
30458;SDS011;74163;50.912;6.918;2024-01-15T01:42:16;42.20;;;24.25;;
30458;SDS011;74163;50.912;6.918;2024-01-15T01:42:47;40.28;;;24.15;;
30458;SDS011;74163;50.912;6.918;2024-01-15T01:43:20;43.42;;;23.50;;
30458;SDS011;74163;50.912;6.918;2024-01-15T01:43:51;43.92;;;24.20;;
30458;SDS011;74163;50.912;6.918;2024-01-15T01:44:23;42.17;;;23.17;;
30458;SDS011;74163;50.912;6.918;2024-01-15T01:44:55;41.22;;;24.45;;
30458;SDS011;74163;50.912;6.918;2024-01-15T01:45:27;42.85;;;24.45;;
30458;SDS011;74163;50.912;6.918;2024-01-15T01:46:00;44.33;;;24.73;;
30458;SDS011;74163;50.912;6.918;2024-01-15T01:46:32;42.90;;;23.30;;
30458;SDS011;74163;50.912;6.918;2024-01-15T01:47:05;47.13;;;24.58;;
30458;SDS011;74163;50.912;6.918;2024-01-15T01:47:37;39.78;;;24.75;;
30458;SDS011;74163;50.912;6.918;2024-01-15T01:48:14;45.67;;;24.17;;
30458;SDS011;74163;50.912;6.918;2024-01-15T01:48:46;44.63;;;24.30;;
30458;SDS011;74163;50.912;6.918;2024-01-15T01:49:19;44.38;;;24.88;;
30458;SDS011;74163;50.912;6.918;2024-01-15T01:49:51;47.05;;;24.70;;
30458;SDS011;74163;50.912;6.918;2024-01-15T01:50:24;48.20;;;25.20;;
30458;SDS011;74163;50.912;6.918;2024-01-15T01:50:57;47.03;;;25.35;;
30458;SDS011;74163;50.912;6.918;2024-01-15T01:51:31;40.28;;;24.45;;
30458;SDS011;74163;50.912;6.918;2024-01-15T01:52:05;43.72;;;24.52;;
30458;SDS011;74163;50.912;6.918;2024-01-15T01:52:37;43.50;;;23.58;;
30458;SDS011;74163;50.912;6.918;2024-01-15T01:53:09;46.70;;;26.05;;
30458;SDS011;74163;50.912;6.918;2024-01-15T01:53:43;51.67;;;25.83;;
30458;SDS011;74163;50.912;6.918;2024-01-15T01:54:16;45.60;;;24.58;;
30458;SDS011;74163;50.912;6.918;2024-01-15T01:54:50;46.42;;;25.65;;
30458;SDS011;74163;50.912;6.918;2024-01-15T01:55:24;41.28;;;24.30;;
30458;SDS011;74163;50.912;6.918;2024-01-15T01:55:57;43.63;;;24.67;;
30458;SDS011;74163;50.912;6.918;2024-01-15T01:56:30;43.65;;;24.80;;
30458;SDS011;74163;50.912;6.918;2024-01-15T01:57:02;46.78;;;24.42;;
30458;SDS011;74163;50.912;6.918;2024-01-15T01:57:35;42.67;;;24.20;;
30458;SDS011;74163;50.912;6.918;2024-01-15T01:58:07;43.33;;;24.27;;
30458;SDS011;74163;50.912;6.918;2024-01-15T01:58:39;43.22;;;23.63;;
30458;SDS011;74163;50.912;6.918;2024-01-15T01:59:10;41.17;;;23.77;;
30458;SDS011;74163;50.912;6.918;2024-01-15T01:59:42;47.08;;;25.13;;
30458;SDS011;74163;50.912;6.918;2024-01-15T02:00:15;44.08;;;24.30;;
30458;SDS011;74163;50.912;6.918;2024-01-15T02:00:47;44.22;;;24.08;;
30458;SDS011;74163;50.912;6.918;2024-01-15T02:01:19;45.47;;;26.05;;
30458;SDS011;74163;50.912;6.918;2024-01-15T02:01:51;43.28;;;24.10;;
30458;SDS011;74163;50.912;6.918;2024-01-15T02:02:25;42.88;;;24.40;;
30458;SDS011;74163;50.912;6.918;2024-01-15T02:02:57;43.95;;;24.10;;
30458;SDS011;74163;50.912;6.918;2024-01-15T02:03:29;44.90;;;24.92;;
30458;SDS011;74163;50.912;6.918;2024-01-15T02:04:02;41.83;;;23.10;;
30458;SDS011;74163;50.912;6.918;2024-01-15T02:04:35;44.28;;;24.48;;
30458;SDS011;74163;50.912;6.918;2024-01-15T02:05:07;40.00;;;22.88;;
30458;SDS011;74163;50.912;6.918;2024-01-15T02:05:42;42.78;;;23.20;;
30458;SDS011;74163;50.912;6.918;2024-01-15T02:06:14;41.50;;;22.75;;
30458;SDS011;74163;50.912;6.918;2024-01-15T02:06:46;44.53;;;23.60;;
30458;SDS011;74163;50.912;6.918;2024-01-15T02:07:19;40.10;;;23.13;;
30458;SDS011;74163;50.912;6.918;2024-01-15T02:07:51;39.97;;;23.08;;
30458;SDS011;74163;50.912;6.918;2024-01-15T02:08:23;44.95;;;24.83;;
30458;SDS011;74163;50.912;6.918;2024-01-15T02:08:55;42.30;;;23.50;;
30458;SDS011;74163;50.912;6.918;2024-01-15T02:09:27;44.85;;;22.77;;
30458;SDS011;74163;50.912;6.918;2024-01-15T02:09:58;41.05;;;22.67;;
30458;SDS011;74163;50.912;6.918;2024-01-15T02:10:30;45.20;;;23.95;;
30458;SDS011;74163;50.912;6.918;2024-01-15T02:11:02;39.40;;;23.52;;
30458;SDS011;74163;50.912;6.918;2024-01-15T02:11:34;41.55;;;24.17;;
30458;SDS011;74163;50.912;6.918;2024-01-15T02:12:07;43.42;;;24.50;;
30458;SDS011;74163;50.912;6.918;2024-01-15T02:12:39;40.33;;;22.70;;
30458;SDS011;74163;50.912;6.918;2024-01-15T02:13:11;42.00;;;22.93;;
30458;SDS011;74163;50.912;6.918;2024-01-15T02:13:42;40.83;;;22.73;;
30458;SDS011;74163;50.912;6.918;2024-01-15T02:14:14;43.50;;;22.95;;
30458;SDS011;74163;50.912;6.918;2024-01-15T02:14:47;40.37;;;22.43;;
30458;SDS011;74163;50.912;6.918;2024-01-15T02:15:18;39.97;;;22.52;;
30458;SDS011;74163;50.912;6.918;2024-01-15T02:15:50;40.20;;;23.65;;
30458;SDS011;74163;50.912;6.918;2024-01-15T02:16:22;38.80;;;21.30;;
30458;SDS011;74163;50.912;6.918;2024-01-15T02:16:54;43.20;;;22.30;;
30458;SDS011;74163;50.912;6.918;2024-01-15T02:17:26;42.47;;;22.88;;
30458;SDS011;74163;50.912;6.918;2024-01-15T02:17:59;37.83;;;22.50;;
30458;SDS011;74163;50.912;6.918;2024-01-15T02:18:38;39.78;;;22.30;;
30458;SDS011;74163;50.912;6.918;2024-01-15T02:19:14;37.75;;;22.73;;
30458;SDS011;74163;50.912;6.918;2024-01-15T02:19:46;42.45;;;22.35;;
30458;SDS011;74163;50.912;6.918;2024-01-15T02:20:18;38.10;;;22.50;;
30458;SDS011;74163;50.912;6.918;2024-01-15T02:20:52;42.25;;;23.15;;
30458;SDS011;74163;50.912;6.918;2024-01-15T02:21:24;42.42;;;23.58;;
30458;SDS011;74163;50.912;6.918;2024-01-15T02:21:55;43.55;;;23.80;;
30458;SDS011;74163;50.912;6.918;2024-01-15T02:22:27;43.00;;;23.30;;
30458;SDS011;74163;50.912;6.918;2024-01-15T02:23:07;42.70;;;23.33;;
30458;SDS011;74163;50.912;6.918;2024-01-15T02:23:40;40.33;;;22.97;;
30458;SDS011;74163;50.912;6.918;2024-01-15T02:24:12;42.65;;;22.35;;
30458;SDS011;74163;50.912;6.918;2024-01-15T02:24:44;41.03;;;23.77;;
30458;SDS011;74163;50.912;6.918;2024-01-15T02:25:16;38.10;;;22.48;;
30458;SDS011;74163;50.912;6.918;2024-01-15T02:25:47;39.22;;;22.85;;
30458;SDS011;74163;50.912;6.918;2024-01-15T02:26:19;39.92;;;22.52;;
30458;SDS011;74163;50.912;6.918;2024-01-15T02:26:51;39.65;;;23.25;;
30458;SDS011;74163;50.912;6.918;2024-01-15T02:27:23;39.30;;;22.40;;
30458;SDS011;74163;50.912;6.918;2024-01-15T02:27:55;39.67;;;23.42;;
30458;SDS011;74163;50.912;6.918;2024-01-15T02:28:27;40.00;;;23.15;;
30458;SDS011;74163;50.912;6.918;2024-01-15T02:28:59;40.65;;;22.85;;
30458;SDS011;74163;50.912;6.918;2024-01-15T02:29:31;41.22;;;22.50;;
30458;SDS011;74163;50.912;6.918;2024-01-15T02:30:04;35.45;;;21.67;;
30458;SDS011;74163;50.912;6.918;2024-01-15T02:30:39;40.40;;;22.15;;
30458;SDS011;74163;50.912;6.918;2024-01-15T02:31:11;35.67;;;21.15;;
30458;SDS011;74163;50.912;6.918;2024-01-15T02:31:43;42.13;;;23.50;;
30458;SDS011;74163;50.912;6.918;2024-01-15T02:32:15;41.53;;;22.38;;
30458;SDS011;74163;50.912;6.918;2024-01-15T02:32:47;40.22;;;21.70;;
30458;SDS011;74163;50.912;6.918;2024-01-15T02:33:19;37.33;;;21.63;;
30458;SDS011;74163;50.912;6.918;2024-01-15T02:33:51;38.65;;;22.48;;
30458;SDS011;74163;50.912;6.918;2024-01-15T02:34:23;41.03;;;23.15;;
30458;SDS011;74163;50.912;6.918;2024-01-15T02:34:55;36.78;;;21.70;;
30458;SDS011;74163;50.912;6.918;2024-01-15T02:35:27;40.60;;;22.90;;
30458;SDS011;74163;50.912;6.918;2024-01-15T02:35:59;38.13;;;21.15;;
30458;SDS011;74163;50.912;6.918;2024-01-15T02:36:30;40.60;;;22.73;;
30458;SDS011;74163;50.912;6.918;2024-01-15T02:37:03;38.13;;;21.80;;
30458;SDS011;74163;50.912;6.918;2024-01-15T02:37:35;39.95;;;21.90;;
30458;SDS011;74163;50.912;6.918;2024-01-15T02:38:08;37.67;;;21.63;;
30458;SDS011;74163;50.912;6.918;2024-01-15T02:38:41;39.70;;;22.48;;
30458;SDS011;74163;50.912;6.918;2024-01-15T02:39:13;41.03;;;22.25;;
30458;SDS011;74163;50.912;6.918;2024-01-15T02:39:44;39.90;;;22.40;;
30458;SDS011;74163;50.912;6.918;2024-01-15T02:40:16;38.37;;;21.10;;
30458;SDS011;74163;50.912;6.918;2024-01-15T02:40:49;40.20;;;22.67;;
30458;SDS011;74163;50.912;6.918;2024-01-15T02:41:21;39.28;;;22.25;;
30458;SDS011;74163;50.912;6.918;2024-01-15T02:41:52;40.72;;;22.80;;
30458;SDS011;74163;50.912;6.918;2024-01-15T02:42:25;38.97;;;23.27;;
30458;SDS011;74163;50.912;6.918;2024-01-15T02:42:57;42.47;;;22.38;;
30458;SDS011;74163;50.912;6.918;2024-01-15T02:43:29;41.00;;;22.58;;
30458;SDS011;74163;50.912;6.918;2024-01-15T02:44:01;38.47;;;21.80;;
30458;SDS011;74163;50.912;6.918;2024-01-15T02:44:33;36.58;;;22.13;;
30458;SDS011;74163;50.912;6.918;2024-01-15T02:45:05;36.08;;;22.25;;
30458;SDS011;74163;50.912;6.918;2024-01-15T02:45:37;38.58;;;22.30;;
30458;SDS011;74163;50.912;6.918;2024-01-15T02:46:09;40.90;;;22.88;;
30458;SDS011;74163;50.912;6.918;2024-01-15T02:46:41;39.42;;;23.02;;
30458;SDS011;74163;50.912;6.918;2024-01-15T02:47:13;37.67;;;20.95;;
30458;SDS011;74163;50.912;6.918;2024-01-15T02:47:44;38.28;;;23.20;;
30458;SDS011;74163;50.912;6.918;2024-01-15T02:48:16;38.80;;;21.83;;
30458;SDS011;74163;50.912;6.918;2024-01-15T02:48:48;40.55;;;23.00;;
30458;SDS011;74163;50.912;6.918;2024-01-15T02:49:20;40.17;;;22.35;;
30458;SDS011;74163;50.912;6.918;2024-01-15T02:49:52;39.78;;;22.35;;
30458;SDS011;74163;50.912;6.918;2024-01-15T02:50:24;38.75;;;23.00;;
30458;SDS011;74163;50.912;6.918;2024-01-15T02:50:56;40.42;;;22.85;;
30458;SDS011;74163;50.912;6.918;2024-01-15T02:51:27;33.92;;;22.08;;
30458;SDS011;74163;50.912;6.918;2024-01-15T02:52:00;36.10;;;22.08;;
30458;SDS011;74163;50.912;6.918;2024-01-15T02:52:32;37.00;;;21.15;;
30458;SDS011;74163;50.912;6.918;2024-01-15T02:53:04;33.75;;;21.70;;
30458;SDS011;74163;50.912;6.918;2024-01-15T02:53:37;36.78;;;22.02;;
30458;SDS011;74163;50.912;6.918;2024-01-15T02:54:09;39.27;;;22.60;;
30458;SDS011;74163;50.912;6.918;2024-01-15T02:54:41;37.38;;;21.73;;
30458;SDS011;74163;50.912;6.918;2024-01-15T02:55:13;39.90;;;21.67;;
30458;SDS011;74163;50.912;6.918;2024-01-15T02:55:45;36.78;;;21.05;;
30458;SDS011;74163;50.912;6.918;2024-01-15T02:56:17;39.47;;;22.67;;
30458;SDS011;74163;50.912;6.918;2024-01-15T02:56:48;35.70;;;22.02;;
30458;SDS011;74163;50.912;6.918;2024-01-15T02:57:20;39.92;;;23.50;;
30458;SDS011;74163;50.912;6.918;2024-01-15T02:57:52;38.40;;;22.40;;
30458;SDS011;74163;50.912;6.918;2024-01-15T02:58:24;38.22;;;22.92;;
30458;SDS011;74163;50.912;6.918;2024-01-15T02:58:56;36.30;;;21.73;;
30458;SDS011;74163;50.912;6.918;2024-01-15T02:59:28;37.60;;;22.05;;
30458;SDS011;74163;50.912;6.918;2024-01-15T02:59:59;38.45;;;22.50;;
30458;SDS011;74163;50.912;6.918;2024-01-15T03:00:31;38.03;;;22.33;;
30458;SDS011;74163;50.912;6.918;2024-01-15T03:01:03;37.45;;;22.08;;
30458;SDS011;74163;50.912;6.918;2024-01-15T03:01:35;36.22;;;22.63;;
30458;SDS011;74163;50.912;6.918;2024-01-15T03:02:07;37.97;;;23.20;;
30458;SDS011;74163;50.912;6.918;2024-01-15T03:02:39;36.88;;;22.23;;
30458;SDS011;74163;50.912;6.918;2024-01-15T03:03:16;37.28;;;23.08;;
30458;SDS011;74163;50.912;6.918;2024-01-15T03:03:48;37.53;;;22.55;;
30458;SDS011;74163;50.912;6.918;2024-01-15T03:04:20;38.40;;;23.27;;
30458;SDS011;74163;50.912;6.918;2024-01-15T03:04:51;37.40;;;21.77;;
30458;SDS011;74163;50.912;6.918;2024-01-15T03:05:23;38.30;;;22.50;;
30458;SDS011;74163;50.912;6.918;2024-01-15T03:05:55;37.30;;;22.25;;
30458;SDS011;74163;50.912;6.918;2024-01-15T03:06:27;40.03;;;22.98;;
30458;SDS011;74163;50.912;6.918;2024-01-15T03:06:59;38.00;;;23.02;;
30458;SDS011;74163;50.912;6.918;2024-01-15T03:07:30;39.95;;;22.05;;
30458;SDS011;74163;50.912;6.918;2024-01-15T03:08:02;36.17;;;21.60;;